Modesto, California
Current Conditions -  °F | °C
As of 8:53 PM on Friday 24 Oct 2014 (Local Time) from KMOD Reporting Station
Clear Clear  
Wind Chill: 66°   Ceiling: Unl
Heat Index: 66°   Visibility: 10mi
Dew Point: 55°   Wind: 8mph
Humidity: 68%   Direction: 320°NW
Pressure: 29.89"   Gusts: NA
Location:  37.64°N, 120.99°W
Report Text: KMOD 250353Z AUTO 32007KT 10SM CLR 19/13 A2989 RMK AO2 SLP120 T01890128
Loading
Personal Weather Stations






























Interactive Weather Map New forecast layout! Learn more

10-Day Weather Forecast

Advertisements
Track Severe Weather on mobile